Time;durP1;ratioP1;P1;durP2;ratioP2;P2;SDS_P1;SDS_P2;PMS_P1;PMS_P2;Temp;Humidity;BMP_temperature;BMP_pressure;BME280_temperature;BME280_humidity;BME280_pressure;Samples;Min_cycle;Max_cycle;Signal;HPM_P1;HPM_P2
2021/05/06 00:02:26;;;;;;;3.88;2.13;;;435.30;1817.60;;;;;;5016112;28;20025;-82
2021/05/06 00:34:25;;;;;;;3.95;2.03;;;410.20;1920.00;;;;;;5035605;28;20108;-82
2021/05/06 00:36:51;;;;;;;4.60;2.25;;;410.10;1945.60;;;;;;5036282;28;20104;-82
2021/05/06 00:39:22;;;;;;;5.47;2.10;;;410.10;1971.20;;;;;;5018597;28;20324;-83
2021/05/06 00:54:05;;;;;;;3.88;1.83;;;409.80;2048.00;;;;;;5037063;28;20364;-82
2021/05/06 00:58:29;;;;;;;10.95;2.95;;;410.20;1945.60;;;;;;5036248;28;20071;-85
2021/05/06 01:01:10;;;;;;;14.48;3.38;;;410.50;1945.60;;;;;;5019184;28;20491;-83
2021/05/06 01:06:20;;;;;;;16.98;3.00;;;435.20;1945.60;;;;;;5035711;28;20022;-83
2021/05/06 01:09:04;;;;;;;14.45;3.65;;;435.20;1971.20;;;;;;5036217;28;20049;-83
2021/05/06 01:14:06;;;;;;;16.92;3.45;;;435.20;1996.80;;;;;;5036397;28;20361;-83
2021/05/06 01:16:32;;;;;;;10.25;2.97;;;410.50;1996.80;;;;;;5018704;28;20075;-82
2021/05/06 01:18:58;;;;;;;17.13;3.70;;;435.20;1996.80;;;;;;5018157;28;20025;-84
2021/05/06 01:21:24;;;;;;;14.73;3.50;;;410.50;2022.40;;;;;;5017780;28;20071;-84
2021/05/06 01:23:52;;;;;;;14.57;3.13;;;410.50;2022.40;;;;;;5017833;28;20029;-83
2021/05/06 01:26:34;;;;;;;17.45;3.28;;;410.40;2022.40;;;;;;5033803;28;20074;-83
2021/05/06 01:29:03;;;;;;;17.73;3.00;;;410.50;2022.40;;;;;;5019411;28;20029;-83
2021/05/06 01:31:33;;;;;;;17.25;3.17;;;410.50;2022.40;;;;;;5018305;28;20033;-84
2021/05/06 01:36:34;;;;;;;15.13;2.72;;;410.50;2048.00;;;;;;5035623;28;20021;-83
2021/05/06 02:00:13;;;;;;;11.15;2.78;;;410.00;2124.80;;;;;;5035494;28;20401;-83
2021/05/06 02:02:40;;;;;;;16.42;3.00;;;410.00;2099.20;;;;;;5018004;28;20449;-83
2021/05/06 02:05:06;;;;;;;15.70;3.10;;;409.70;2150.40;;;;;;5035351;28;20029;-84
2021/05/06 02:07:35;;;;;;;9.40;3.05;;;409.70;2150.40;;;;;;5016656;28;20083;-81
2021/05/06 02:10:00;;;;;;;17.17;3.38;;;409.70;2150.40;;;;;;5017022;28;20022;-84
2021/05/06 02:12:26;;;;;;;9.60;2.78;;;409.60;2150.40;;;;;;5017273;28;20032;-84
2021/05/06 02:14:59;;;;;;;11.05;2.60;;;384.90;2124.80;;;;;;5017275;28;20468;-84
2021/05/06 02:17:25;;;;;;;16.30;2.60;;;384.80;2150.40;;;;;;5017287;28;20025;-83
2021/05/06 02:19:51;;;;;;;14.65;2.72;;;384.60;2150.40;;;;;;5017051;28;20040;-84
2021/05/06 02:22:18;;;;;;;14.23;2.30;;;384.60;2150.40;;;;;;5016650;28;20036;-84
2021/05/06 02:24:45;;;;;;;9.05;2.35;;;384.60;2124.80;;;;;;5030362;28;20088;-85
2021/05/06 02:27:11;;;;;;;8.82;2.22;;;384.50;2124.80;;;;;;5037173;28;20364;-84
2021/05/06 02:29:37;;;;;;;13.32;2.10;;;384.40;2124.80;;;;;;5036139;28;20013;-85
2021/05/06 02:32:04;;;;;;;13.50;3.05;;;384.40;2099.20;;;;;;5020366;28;20021;-84
2021/05/06 02:34:30;;;;;;;6.78;2.92;;;384.40;2124.80;;;;;;5036497;28;20028;-86
2021/05/06 02:36:56;;;;;;;6.75;3.33;;;384.30;2124.80;;;;;;5034125;28;20017;-85
2021/05/06 02:39:22;;;;;;;9.18;2.50;;;384.20;2150.40;;;;;;5035913;28;20424;-84
2021/05/06 02:41:48;;;;;;;8.30;2.60;;;384.10;2150.40;;;;;;5036042;28;20052;-85
2021/05/06 02:44:14;;;;;;;11.30;2.75;;;384.10;2176.00;;;;;;5036683;28;20059;-85
2021/05/06 02:46:41;;;;;;;11.13;2.80;;;359.30;2227.20;;;;;;5037264;28;20021;-84
2021/05/06 02:49:07;;;;;;;23.38;5.07;;;384.00;2227.20;;;;;;5036228;28;20056;-84
2021/05/06 02:51:39;;;;;;;11.27;2.78;;;359.30;2252.80;;;;;;5035860;28;20079;-84
2021/05/06 02:54:06;;;;;;;9.82;2.75;;;359.30;2278.40;;;;;;5033434;28;20059;-83
2021/05/06 02:56:46;;;;;;;12.57;2.97;;;359.30;2304.00;;;;;;5035176;28;20028;-84
2021/05/06 02:59:38;;;;;;;20.63;3.03;;;359.30;2304.00;;;;;;5068297;28;20021;-84
2021/05/06 03:04:48;;;;;;;9.77;2.90;;;359.20;2329.60;;;;;;5053913;28;20083;-83
2021/05/06 03:07:27;;;;;;;8.98;2.95;;;359.20;2304.00;;;;;;5051106;28;20451;-83
2021/05/06 03:10:01;;;;;;;13.05;3.38;;;359.30;2329.60;;;;;;5052026;28;20036;-84
2021/05/06 03:13:07;;;;;;;5.30;2.60;;;359.20;2304.00;;;;;;5052152;28;20134;-83
2021/05/06 03:23:27;;;;;;;8.23;2.40;;;359.00;2304.00;;;;;;5052958;28;20103;-85
2021/05/06 03:25:59;;;;;;;9.48;2.15;;;359.00;2304.00;;;;;;5035198;28;20021;-85
2021/05/06 03:28:34;;;;;;;11.95;2.92;;;359.00;2329.60;;;;;;5035781;28;20028;-85
2021/05/06 03:42:04;;;;;;;5.07;1.98;;;358.80;2329.60;;;;;;5053025;28;20112;-85
2021/05/06 03:44:47;;;;;;;8.23;2.25;;;358.80;2329.60;;;;;;5035714;28;20017;-84
2021/05/06 03:50:22;;;;;;;;;;;;;;;;;;;;;
2021/05/06 04:18:28;;;;;;;5.30;1.88;;;358.60;2304.00;;;;;;5077339;28;20048;-83
2021/05/06 04:35:41;;;;;;;7.18;2.13;;;358.80;2227.20;;;;;;5076226;28;20048;-83
2021/05/06 04:38:25;;;;;;;4.68;1.33;;;358.80;2176.00;;;;;;5076606;28;20091;-84
2021/05/06 04:41:10;;;;;;;6.93;1.80;;;358.60;2176.00;;;;;;5058368;28;20020;-84
2021/05/06 04:54:47;;;;;;;6.68;1.75;;;359.00;2176.00;;;;;;5065719;28;20039;-86
2021/05/06 04:57:37;;;;;;;7.28;1.65;;;359.00;2176.00;;;;;;5075916;28;20016;-84
2021/05/06 05:03:33;;;;;;;6.57;1.67;;;359.00;2150.40;;;;;;5076606;28;20118;-84
2021/05/06 05:06:00;;;;;;;4.40;1.73;;;359.00;2150.40;;;;;;5057755;28;20047;-84
2021/05/06 05:08:33;;;;;;;9.02;1.50;;;359.00;2176.00;;;;;;5057753;28;20020;-85
2021/05/06 05:19:58;;;;;;;7.25;1.90;;;359.20;2124.80;;;;;;5076251;28;20035;-85
2021/05/06 05:25:21;;;;;;;6.72;3.28;;;359.10;2124.80;;;;;;5077650;28;20035;-86
2021/05/06 05:27:47;;;;;;;9.38;3.67;;;359.20;2099.20;;;;;;5059335;28;20031;-83
2021/05/06 05:30:14;;;;;;;11.10;4.20;;;359.30;2048.00;;;;;;5059158;28;20056;-84
2021/05/06 05:32:40;;;;;;;7.57;2.63;;;359.20;2048.00;;;;;;5058414;28;20033;-84
2021/05/06 05:35:37;;;;;;;7.30;1.88;;;359.00;2022.40;;;;;;5057784;28;20020;-84
2021/05/06 05:38:34;;;;;;;6.32;1.50;;;359.20;1996.80;;;;;;5056917;28;20020;-83
2021/05/06 05:41:10;;;;;;;7.35;1.70;;;359.30;1971.20;;;;;;5057096;28;20464;-83
2021/05/06 05:54:32;;;;;;;11.15;2.15;;;359.20;1971.20;;;;;;5078348;28;20105;-85
2021/05/06 05:54:41;;;;;;;4.65;1.42;;;384.00;1945.60;;;;;;5073547;28;20040;-84
2021/05/06 05:57:10;;;;;;;4.57;1.38;;;384.10;1945.60;;;;;;5074392;28;20032;-84
2021/05/06 05:59:43;;;;;;;7.43;2.35;;;384.20;1920.00;;;;;;5056202;28;20020;-83
2021/05/06 06:02:09;;;;;;;3.70;1.70;;;384.30;1894.40;;;;;;5057314;28;20024;-83
2021/05/06 06:04:35;;;;;;;6.00;1.52;;;384.30;1868.80;;;;;;5056388;28;20033;-84
2021/05/06 06:07:01;;;;;;;7.35;1.88;;;384.50;1868.80;;;;;;5054973;28;20021;-84
2021/05/06 06:09:27;;;;;;;5.55;1.80;;;384.60;1843.20;;;;;;5056733;28;20024;-83
2021/05/06 06:11:52;;;;;;;5.22;1.67;;;384.60;1843.20;;;;;;5056733;28;20052;-84
2021/05/06 06:14:24;;;;;;;3.95;1.55;;;384.50;1817.60;;;;;;5075015;28;20056;-86
2021/05/06 06:16:50;;;;;;;3.05;1.30;;;384.40;1792.00;;;;;;5057349;28;20115;-83
2021/05/06 06:19:18;;;;;;;5.28;1.42;;;384.60;1817.60;;;;;;5057070;28;20020;-85
2021/05/06 06:21:49;;;;;;;3.75;1.33;;;384.50;1792.00;;;;;;5056430;28;20033;-84
2021/05/06 06:24:15;;;;;;;5.20;1.70;;;384.70;1766.40;;;;;;5055167;28;20021;-84
2021/05/06 06:26:41;;;;;;;3.90;1.40;;;384.50;1740.80;;;;;;5072924;28;20057;-84
2021/05/06 06:29:12;;;;;;;3.17;1.30;;;384.70;1715.20;;;;;;5072545;28;20020;-84
2021/05/06 06:31:43;;;;;;;5.88;1.50;;;384.70;1715.20;;;;;;5072986;28;20413;-83
2021/05/06 06:34:09;;;;;;;6.72;1.67;;;384.60;1664.00;;;;;;5072688;28;20064;-84
2021/05/06 06:36:36;;;;;;;4.97;1.58;;;384.70;1689.60;;;;;;5071503;28;20044;-83
2021/05/06 06:39:03;;;;;;;5.80;1.58;;;384.90;1664.00;;;;;;5072772;28;20020;-84
2021/05/06 06:41:29;;;;;;;6.35;1.80;;;409.70;1689.60;;;;;;5072748;28;20077;-83
2021/05/06 06:43:58;;;;;;;5.20;2.08;;;409.60;1664.00;;;;;;5074445;28;20025;-84
2021/05/06 06:46:24;;;;;;;4.22;1.55;;;409.60;1664.00;;;;;;5073350;28;20020;-85
2021/05/06 06:48:50;;;;;;;13.20;3.25;;;409.70;1638.40;;;;;;5072918;28;20021;-84
2021/05/06 06:51:16;;;;;;;6.50;1.90;;;409.70;1689.60;;;;;;5056087;28;20029;-85
2021/05/06 06:53:42;;;;;;;7.90;1.70;;;409.90;1715.20;;;;;;5072113;28;20049;-84
2021/05/06 06:56:08;;;;;;;6.05;1.65;;;410.20;1689.60;;;;;;5055223;28;20111;-84
2021/05/06 06:58:34;;;;;;;4.30;2.00;;;410.00;1664.00;;;;;;5055709;28;20442;-84
2021/05/06 07:01:00;;;;;;;4.40;1.67;;;410.20;1664.00;;;;;;5072824;28;20036;-82
2021/05/06 07:03:27;;;;;;;6.35;2.55;;;410.30;1638.40;;;;;;5073435;28;20440;-82
2021/05/06 07:05:53;;;;;;;5.68;1.92;;;410.30;1638.40;;;;;;5072796;28;20024;-83
2021/05/06 07:08:24;;;;;;;6.30;2.30;;;410.40;1612.80;;;;;;5072157;28;20491;-84
2021/05/06 07:10:54;;;;;;;8.05;2.67;;;410.40;1612.80;;;;;;5055565;28;20025;-83
2021/05/06 07:13:22;;;;;;;5.05;2.65;;;410.30;1638.40;;;;;;5056231;28;20028;-84
2021/05/06 07:15:49;;;;;;;8.45;2.83;;;410.50;1612.80;;;;;;5055989;28;20456;-82
2021/05/06 07:18:16;;;;;;;4.10;2.08;;;435.20;1587.20;;;;;;5073951;28;20020;-83
2021/05/06 07:20:43;;;;;;;7.30;2.97;;;435.20;1587.20;;;;;;5072326;28;20426;-82
2021/05/06 07:23:14;;;;;;;9.07;2.78;;;410.50;1587.20;;;;;;5055059;28;20024;-83
2021/05/06 07:25:40;;;;;;;9.57;2.53;;;435.20;1561.60;;;;;;5055476;28;20021;-83
2021/05/06 07:28:11;;;;;;;3.80;1.75;;;435.40;1561.60;;;;;;5055798;28;20020;-82
2021/05/06 07:30:37;;;;;;;7.25;2.22;;;435.50;1536.00;;;;;;5073262;28;20364;-83
2021/05/06 07:33:03;;;;;;;3.55;1.70;;;435.60;1536.00;;;;;;5055826;28;20035;-81
2021/05/06 07:35:32;;;;;;;5.15;1.77;;;435.80;1536.00;;;;;;5055440;28;20111;-82
2021/05/06 07:37:59;;;;;;;5.53;1.77;;;435.80;1510.40;;;;;;5071688;28;20373;-83
2021/05/06 07:40:26;;;;;;;12.82;2.63;;;435.70;1510.40;;;;;;5055119;28;20024;-83
2021/05/06 07:42:52;;;;;;;3.47;1.50;;;435.80;1536.00;;;;;;5055543;28;20017;-84
2021/05/06 07:45:19;;;;;;;4.82;1.70;;;435.80;1510.40;;;;;;5055598;28;20017;-82
2021/05/06 07:47:44;;;;;;;5.75;1.83;;;460.80;1536.00;;;;;;5073571;28;20357;-83
2021/05/06 07:50:11;;;;;;;6.22;1.80;;;460.80;1510.40;;;;;;5054880;28;20024;-82
2021/05/06 07:52:37;;;;;;;3.88;1.80;;;460.80;1484.80;;;;;;5053383;28;20040;-85
2021/05/06 07:55:04;;;;;;;8.93;2.05;;;460.80;1484.80;;;;;;5054860;28;20013;-82
2021/05/06 07:57:29;;;;;;;5.15;1.50;;;460.80;1510.40;;;;;;5072157;28;20043;-81
2021/05/06 07:59:55;;;;;;;7.80;2.53;;;461.20;1510.40;;;;;;5054322;28;20642;-80
2021/05/06 08:02:22;;;;;;;5.70;2.33;;;461.40;1484.80;;;;;;5053499;28;20020;-81
2021/05/06 08:04:48;;;;;;;8.38;1.50;;;461.40;1459.20;;;;;;5054984;28;20056;-77
2021/05/06 08:07:14;;;;;;;7.60;1.60;;;461.70;1459.20;;;;;;5062217;28;20055;-78
2021/05/06 08:09:40;;;;;;;3.17;1.83;;;461.70;1459.20;;;;;;5055691;28;20067;-78
2021/05/06 08:12:06;;;;;;;11.27;3.50;;;486.40;1459.20;;;;;;5054184;28;20035;-77
2021/05/06 08:14:33;;;;;;;6.90;2.97;;;486.80;1484.80;;;;;;5072706;28;20086;-77
2021/05/06 08:16:58;;;;;;;8.60;2.65;;;486.70;1459.20;;;;;;5055912;28;20427;-77
2021/05/06 08:19:24;;;;;;;6.88;3.67;;;486.90;1459.20;;;;;;5071612;28;20044;-80
2021/05/06 08:21:50;;;;;;;6.32;3.17;;;486.80;1459.20;;;;;;5055080;28;20120;-77
2021/05/06 08:24:16;;;;;;;7.20;2.20;;;487.10;1433.60;;;;;;5053513;28;20103;-79
2021/05/06 08:26:42;;;;;;;5.68;2.00;;;487.10;1382.40;;;;;;5054936;28;20081;-80
2021/05/06 08:29:08;;;;;;;3.55;1.50;;;487.30;1408.00;;;;;;5073779;28;20012;-85
2021/05/06 08:31:34;;;;;;;5.15;1.70;;;487.10;1382.40;;;;;;5055563;28;20040;-85
2021/05/06 08:34:00;;;;;;;3.90;1.58;;;486.70;1408.00;;;;;;5055167;28;20142;-86
2021/05/06 08:36:26;;;;;;;10.68;2.35;;;486.50;1433.60;;;;;;5072979;28;20363;-87
2021/05/06 08:38:52;;;;;;;6.65;1.70;;;486.80;1433.60;;;;;;5071596;28;20364;-85
2021/05/06 08:41:19;;;;;;;7.75;2.30;;;486.60;1408.00;;;;;;5072515;28;20028;-85
2021/05/06 08:43:49;;;;;;;5.22;1.92;;;461.70;1433.60;;;;;;5072826;28;20022;-84
2021/05/06 08:46:16;;;;;;;6.25;2.30;;;486.70;1408.00;;;;;;5072573;28;20021;-85
2021/05/06 08:48:43;;;;;;;9.63;2.80;;;487.20;1459.20;;;;;;5070945;28;20063;-84
2021/05/06 08:51:09;;;;;;;6.03;2.50;;;487.10;1382.40;;;;;;5070739;28;20029;-85
2021/05/06 08:53:37;;;;;;;11.57;3.10;;;512.40;1356.80;;;;;;5071623;28;20049;-85
2021/05/06 08:56:03;;;;;;;10.20;2.90;;;512.60;1382.40;;;;;;5074723;28;20364;-85
2021/05/06 08:58:29;;;;;;;4.25;1.92;;;512.90;1382.40;;;;;;5076060;28;20021;-85
2021/05/06 09:00:55;;;;;;;5.97;2.28;;;537.80;1356.80;;;;;;5075801;28;20040;-85
2021/05/06 09:03:21;;;;;;;6.03;2.60;;;537.80;1331.20;;;;;;5076304;28;20376;-88
2021/05/06 09:06:10;;;;;;;7.30;4.00;;;537.70;1356.80;;;;;;5076142;28;20066;-85
2021/05/06 09:08:38;;;;;;;6.55;3.60;;;538.00;1331.20;;;;;;5075491;28;20020;-84
2021/05/06 09:11:04;;;;;;;7.53;2.90;;;538.30;1305.60;;;;;;5076312;28;20122;-84
2021/05/06 09:13:31;;;;;;;7.05;2.10;;;538.50;1305.60;;;;;;5076878;28;20059;-84
2021/05/06 09:15:58;;;;;;;6.03;2.20;;;538.50;1280.00;;;;;;5076188;28;20048;-85
2021/05/06 09:18:45;;;;;;;4.32;2.15;;;538.00;1305.60;;;;;;5075990;28;20434;-86
2021/05/06 09:21:31;;;;;;;5.35;1.92;;;538.00;1331.20;;;;;;5075734;28;20063;-85
2021/05/06 09:24:25;;;;;;;8.25;2.03;;;537.60;1331.20;;;;;;5074467;28;20013;-84
2021/05/06 09:26:55;;;;;;;8.23;2.50;;;537.60;1356.80;;;;;;5059959;28;20399;-85
2021/05/06 09:29:37;;;;;;;5.65;2.00;;;538.00;1382.40;;;;;;5057903;28;20059;-85
2021/05/06 09:32:13;;;;;;;7.18;2.90;;;538.00;1331.20;;;;;;5059123;28;20067;-84
2021/05/06 09:34:40;;;;;;;7.45;2.20;;;537.90;1331.20;;;;;;5058978;28;20029;-85
2021/05/06 09:37:08;;;;;;;7.70;2.28;;;538.50;1331.20;;;;;;5058604;28;20021;-84
2021/05/06 09:39:38;;;;;;;8.32;2.20;;;538.30;1331.20;;;;;;5058837;28;20021;-85
2021/05/06 09:42:09;;;;;;;5.95;2.15;;;538.20;1356.80;;;;;;5059189;28;20115;-84
2021/05/06 09:44:50;;;;;;;7.97;3.85;;;563.40;1408.00;;;;;;5058938;28;20020;-85
2021/05/06 09:47:17;;;;;;;7.72;4.65;;;563.80;1356.80;;;;;;5059002;28;20407;-85
2021/05/06 09:49:43;;;;;;;7.03;3.05;;;564.10;1356.80;;;;;;5058317;28;20027;-85
2021/05/06 09:52:09;;;;;;;6.68;3.60;;;588.80;1305.60;;;;;;5058190;28;20471;-85
2021/05/06 09:54:46;;;;;;;11.27;5.18;;;589.20;1331.20;;;;;;5057696;28;20020;-86
2021/05/06 09:57:12;;;;;;;12.13;3.70;;;589.20;1305.60;;;;;;5075002;28;20025;-85
2021/05/06 09:59:41;;;;;;;5.85;3.13;;;589.50;1280.00;;;;;;5074019;28;20363;-85
2021/05/06 10:02:17;;;;;;;3.63;1.60;;;614.40;1280.00;;;;;;5075512;28;20020;-86
2021/05/06 10:04:45;;;;;;;7.32;2.00;;;589.30;1254.40;;;;;;5075101;28;20363;-85
2021/05/06 10:07:22;;;;;;;4.57;1.88;;;564.10;1280.00;;;;;;5074037;28;20027;-85
2021/05/06 10:10:02;;;;;;;5.40;1.80;;;563.70;1305.60;;;;;;5075079;28;20020;-85
2021/05/06 10:12:32;;;;;;;5.80;1.70;;;564.10;1280.00;;;;;;5076136;28;20028;-84
2021/05/06 10:14:59;;;;;;;5.75;2.03;;;564.00;1254.40;;;;;;5074843;28;20123;-86
2021/05/06 10:17:27;;;;;;;6.60;1.65;;;588.90;1254.40;;;;;;5074731;28;20024;-85
2021/05/06 10:19:54;;;;;;;3.85;1.90;;;588.80;1280.00;;;;;;5074808;28;20020;-85
2021/05/06 10:22:24;;;;;;;4.70;2.47;;;588.90;1254.40;;;;;;5075278;28;20035;-84
2021/05/06 10:24:50;;;;;;;6.85;1.63;;;588.90;1254.40;;;;;;5074261;28;20020;-85
2021/05/06 10:27:21;;;;;;;5.28;2.30;;;589.20;1280.00;;;;;;5075520;28;20476;-86
2021/05/06 10:29:52;;;;;;;10.27;4.18;;;589.20;1280.00;;;;;;5074833;28;20027;-85
2021/05/06 10:32:19;;;;;;;6.53;2.60;;;614.40;1280.00;;;;;;5074254;28;20028;-85
2021/05/06 10:34:54;;;;;;;9.05;3.22;;;614.80;1228.80;;;;;;5074801;28;20039;-86
2021/05/06 10:37:28;;;;;;;6.68;1.80;;;614.80;1228.80;;;;;;5075106;28;20120;-85
2021/05/06 10:39:54;;;;;;;5.93;2.53;;;589.70;1228.80;;;;;;5074177;28;20115;-85
2021/05/06 10:42:26;;;;;;;5.47;2.42;;;589.70;1228.80;;;;;;5074710;28;20368;-85
2021/05/06 10:44:53;;;;;;;9.48;3.75;;;589.50;1254.40;;;;;;5074859;28;20020;-85
2021/05/06 10:47:39;;;;;;;4.55;2.35;;;614.80;1254.40;;;;;;5074372;28;20044;-85
2021/05/06 10:50:09;;;;;;;10.45;3.63;;;614.80;1203.20;;;;;;5074133;28;20066;-85
2021/05/06 10:52:43;;;;;;;12.02;5.80;;;614.40;1254.40;;;;;;5073832;28;20045;-84
2021/05/06 10:55:11;;;;;;;10.35;4.68;;;615.00;1254.40;;;;;;5074402;28;20133;-85
2021/05/06 10:57:38;;;;;;;5.13;2.47;;;640.10;1228.80;;;;;;5073880;28;20410;-85
2021/05/06 11:00:23;;;;;;;6.35;2.20;;;640.10;1203.20;;;;;;5073415;28;20107;-85
2021/05/06 11:02:54;;;;;;;8.43;3.78;;;640.20;1203.20;;;;;;5074649;28;20055;-86
2021/05/06 11:05:22;;;;;;;14.23;6.77;;;640.40;1177.60;;;;;;5073812;28;20048;-87
2021/05/06 11:08:03;;;;;;;9.45;2.08;;;640.70;1203.20;;;;;;5073654;28;20105;-84
2021/05/06 11:10:30;;;;;;;10.85;4.18;;;640.50;1177.60;;;;;;5074193;28;20465;-83
2021/05/06 11:12:57;;;;;;;6.60;1.95;;;640.70;1177.60;;;;;;5074460;28;20024;-84
2021/05/06 11:15:28;;;;;;;7.45;2.53;;;640.20;1177.60;;;;;;5073753;28;20024;-85
2021/05/06 11:17:57;;;;;;;12.20;2.97;;;665.60;1203.20;;;;;;5075809;28;20025;-84
2021/05/06 11:20:28;;;;;;;6.97;4.15;;;665.60;1203.20;;;;;;5075993;28;20051;-84
2021/05/06 11:23:00;;;;;;;8.55;4.75;;;665.70;1203.20;;;;;;5076048;28;20023;-83
2021/05/06 11:25:27;;;;;;;6.28;2.53;;;665.90;1177.60;;;;;;5073860;28;20449;-84
2021/05/06 11:27:58;;;;;;;11.25;6.25;;;640.60;1152.00;;;;;;5073090;28;20025;-86
2021/05/06 11:30:34;;;;;;;8.10;3.67;;;666.00;1177.60;;;;;;5055609;28;20021;-85
2021/05/06 11:33:21;;;;;;;8.52;4.20;;;666.40;1177.60;;;;;;5056901;28;20024;-84
2021/05/06 11:36:12;;;;;;;11.80;7.03;;;691.20;1152.00;;;;;;5073436;28;20031;-85
2021/05/06 11:38:42;;;;;;;7.35;4.03;;;691.70;1152.00;;;;;;5057465;28;20024;-85
2021/05/06 11:41:16;;;;;;;7.00;2.45;;;691.80;1152.00;;;;;;5073746;28;20374;-85
2021/05/06 11:43:50;;;;;;;6.88;3.28;;;691.90;1100.80;;;;;;5056828;28;20024;-85
2021/05/06 11:46:26;;;;;;;8.35;2.22;;;691.70;1100.80;;;;;;5056881;28;20044;-85
2021/05/06 11:48:58;;;;;;;8.35;3.45;;;691.20;1126.40;;;;;;5056469;28;20021;-85
2021/05/06 11:51:28;;;;;;;12.73;6.07;;;691.50;1126.40;;;;;;5056692;28;20071;-85
2021/05/06 11:54:09;;;;;;;14.70;6.43;;;691.70;1126.40;;;;;;5073258;28;20044;-86
2021/05/06 11:56:40;;;;;;;9.50;3.70;;;692.00;1126.40;;;;;;5072065;28;20016;-86
2021/05/06 11:59:18;;;;;;;7.53;4.23;;;716.80;1126.40;;;;;;5056884;28;20035;-85
2021/05/06 12:01:45;;;;;;;7.03;1.88;;;716.80;1100.80;;;;;;5055654;28;20417;-85
2021/05/06 12:04:41;;;;;;;7.65;2.42;;;691.40;1100.80;;;;;;5056446;28;20017;-84
2021/05/06 12:07:16;;;;;;;5.85;2.35;;;691.70;1126.40;;;;;;5039962;28;20025;-85
2021/05/06 12:09:42;;;;;;;4.43;2.17;;;691.60;1126.40;;;;;;5056268;28;20020;-85
2021/05/06 12:12:08;;;;;;;9.43;3.47;;;691.60;1100.80;;;;;;5056525;28;20412;-85
2021/05/06 12:14:39;;;;;;;6.38;2.50;;;691.70;1100.80;;;;;;5056431;28;20016;-85
2021/05/06 12:17:06;;;;;;;6.95;2.38;;;716.80;1126.40;;;;;;5056151;28;20067;-85
2021/05/06 12:19:32;;;;;;;5.70;1.95;;;717.00;1100.80;;;;;;5056460;28;20025;-86
2021/05/06 12:21:59;;;;;;;9.32;2.17;;;717.00;1100.80;;;;;;5056470;28;20111;-86
2021/05/06 12:24:33;;;;;;;7.72;2.40;;;717.20;1100.80;;;;;;5056384;28;20021;-83
2021/05/06 12:27:21;;;;;;;9.82;2.17;;;717.20;1126.40;;;;;;5056286;28;20475;-85
2021/05/06 12:29:57;;;;;;;11.05;2.65;;;717.50;1100.80;;;;;;5074635;28;20115;-85
2021/05/06 12:32:29;;;;;;;13.18;2.55;;;717.50;1100.80;;;;;;5061622;28;20037;-86
2021/05/06 12:34:55;;;;;;;13.88;3.20;;;717.70;1075.20;;;;;;5060457;28;20456;-87
2021/05/06 12:37:25;;;;;;;9.68;3.85;;;743.00;1075.20;;;;;;5068694;28;20020;-86
2021/05/06 12:39:51;;;;;;;6.97;2.10;;;768.20;1075.20;;;;;;5064931;28;20093;-86
2021/05/06 12:42:26;;;;;;;11.43;3.00;;;717.70;1049.60;;;;;;5060347;28;20448;-86
2021/05/06 12:44:52;;;;;;;8.45;3.63;;;717.50;1100.80;;;;;;5076461;28;20012;-85
2021/05/06 12:47:29;;;;;;;8.43;4.22;;;717.70;1049.60;;;;;;5060273;28;20107;-86
2021/05/06 12:50:15;;;;;;;8.23;4.50;;;717.70;1100.80;;;;;;5059937;28;20025;-86
2021/05/06 12:52:43;;;;;;;6.28;3.05;;;742.40;1075.20;;;;;;5059302;28;20040;-86
2021/05/06 12:55:30;;;;;;;9.48;4.15;;;742.50;1100.80;;;;;;5058656;28;20023;-86
2021/05/06 12:58:18;;;;;;;14.30;5.00;;;742.50;1075.20;;;;;;5076420;28;20017;-86
2021/05/06 13:00:52;;;;;;;7.15;2.60;;;742.40;1100.80;;;;;;5075710;28;20464;-86
2021/05/06 13:03:18;;;;;;;8.05;2.72;;;742.40;1075.20;;;;;;5076374;28;20116;-85
2021/05/06 13:05:46;;;;;;;8.40;2.78;;;742.40;1100.80;;;;;;5076158;28;20519;-86
2021/05/06 13:08:12;;;;;;;4.65;2.08;;;742.40;1075.20;;;;;;5076322;28;20016;-86
2021/05/06 13:10:43;;;;;;;7.60;3.78;;;742.40;1100.80;;;;;;5076765;28;20074;-86
2021/05/06 13:13:11;;;;;;;4.68;2.20;;;717.50;1075.20;;;;;;5076188;28;20067;-85
2021/05/06 13:15:48;;;;;;;7.68;2.70;;;742.50;1100.80;;;;;;5076144;28;20027;-85
2021/05/06 13:18:14;;;;;;;8.65;3.92;;;742.50;1075.20;;;;;;5075024;28;20020;-85
2021/05/06 13:20:41;;;;;;;7.97;2.35;;;742.50;1100.80;;;;;;5075525;28;20048;-85
2021/05/06 13:23:12;;;;;;;4.20;1.75;;;717.40;1075.20;;;;;;5059677;28;20042;-84
2021/05/06 13:25:53;;;;;;;6.32;3.22;;;717.20;1049.60;;;;;;5058896;28;20030;-86
2021/05/06 13:28:40;;;;;;;6.40;2.67;;;717.40;1100.80;;;;;;5058885;28;20107;-85
2021/05/06 13:31:19;;;;;;;6.97;2.88;;;717.10;1100.80;;;;;;5059025;28;20032;-85
2021/05/06 13:33:46;;;;;;;6.13;2.55;;;717.40;1100.80;;;;;;5059928;28;20074;-86
2021/05/06 13:36:23;;;;;;;8.63;3.03;;;717.50;1100.80;;;;;;5059493;28;20502;-87
2021/05/06 13:38:50;;;;;;;9.05;3.30;;;742.40;1100.80;;;;;;5059055;28;20406;-86
2021/05/06 13:41:17;;;;;;;12.45;5.00;;;742.50;1075.20;;;;;;5075436;28;20025;-84
2021/05/06 13:43:43;;;;;;;7.45;3.38;;;742.60;1075.20;;;;;;5058456;28;20032;-81
2021/05/06 13:46:10;;;;;;;7.22;2.70;;;742.50;1049.60;;;;;;5057960;28;20112;-80
2021/05/06 13:48:36;;;;;;;6.93;2.45;;;742.80;1100.80;;;;;;5073942;28;20024;-79
2021/05/06 13:51:09;;;;;;;10.32;3.70;;;743.00;1075.20;;;;;;5057538;28;20020;-81
2021/05/06 13:53:36;;;;;;;9.35;4.18;;;743.00;1075.20;;;;;;5056183;28;20387;-81
2021/05/06 13:56:02;;;;;;;12.15;3.47;;;742.70;1075.20;;;;;;5057871;28;20021;-80
2021/05/06 13:58:28;;;;;;;9.90;3.03;;;768.10;1049.60;;;;;;5056404;28;20020;-79
2021/05/06 14:00:53;;;;;;;5.85;2.13;;;742.80;1049.60;;;;;;5057506;28;20159;-79
2021/05/06 14:03:19;;;;;;;9.48;2.60;;;742.70;1049.60;;;;;;5057706;28;20477;-79
2021/05/06 14:05:45;;;;;;;4.65;1.80;;;742.80;1075.20;;;;;;5055300;28;20027;-79
2021/05/06 14:08:14;;;;;;;11.32;4.35;;;742.90;1049.60;;;;;;5056877;28;20013;-79
2021/05/06 14:10:41;;;;;;;9.65;6.72;;;743.00;1075.20;;;;;;5073672;28;20112;-78
2021/05/06 14:13:07;;;;;;;12.40;6.97;;;743.00;1049.60;;;;;;5056316;28;20031;-79
2021/05/06 14:15:33;;;;;;;11.68;6.60;;;743.10;1049.60;;;;;;5073231;28;20028;-79
2021/05/06 14:17:59;;;;;;;7.97;5.10;;;742.90;1049.60;;;;;;5073808;28;20032;-79
2021/05/06 14:20:26;;;;;;;10.05;5.40;;;742.90;1075.20;;;;;;5056010;28;20027;-80
2021/05/06 14:22:52;;;;;;;9.27;4.20;;;742.80;1049.60;;;;;;5056391;28;20045;-78
2021/05/06 14:25:17;;;;;;;7.78;3.65;;;742.90;1049.60;;;;;;5056540;28;20028;-79
2021/05/06 14:27:43;;;;;;;9.05;2.65;;;742.70;1049.60;;;;;;5056918;28;20364;-84
2021/05/06 14:30:10;;;;;;;5.65;2.13;;;742.80;1100.80;;;;;;5075237;28;20436;-79
2021/05/06 14:32:36;;;;;;;6.43;3.13;;;742.80;1075.20;;;;;;5074706;28;20025;-79
2021/05/06 14:35:02;;;;;;;11.85;7.95;;;742.90;1075.20;;;;;;5055700;28;20061;-81
2021/05/06 14:37:29;;;;;;;11.15;3.03;;;743.00;1049.60;;;;;;5055585;28;20020;-81
2021/05/06 14:39:55;;;;;;;6.30;2.20;;;742.70;1049.60;;;;;;5057488;28;20025;-82
2021/05/06 14:42:22;;;;;;;7.45;2.50;;;742.50;1075.20;;;;;;5055100;28;20024;-77
2021/05/06 14:44:48;;;;;;;8.00;4.20;;;742.40;1075.20;;;;;;5056550;28;20048;-78
2021/05/06 14:47:14;;;;;;;9.38;5.60;;;742.40;1075.20;;;;;;5055779;28;20055;-77
2021/05/06 14:49:39;;;;;;;8.25;3.45;;;717.70;1049.60;;;;;;5056324;28;20468;-77
2021/05/06 14:52:05;;;;;;;12.45;6.95;;;742.40;1100.80;;;;;;5055735;28;20032;-78
2021/05/06 14:54:31;;;;;;;11.77;5.25;;;742.50;1100.80;;;;;;5054210;28;20025;-78
2021/05/06 14:56:57;;;;;;;8.90;3.47;;;742.70;1075.20;;;;;;5074867;28;20074;-78
2021/05/06 14:59:23;;;;;;;10.77;2.85;;;742.40;1100.80;;;;;;5055243;28;20020;-78
2021/05/06 15:01:49;;;;;;;12.85;4.25;;;742.50;1075.20;;;;;;5055802;28;20479;-79
2021/05/06 15:04:15;;;;;;;7.60;2.90;;;742.50;1100.80;;;;;;5056476;28;20021;-83
2021/05/06 15:06:40;;;;;;;9.18;3.40;;;717.70;1075.20;;;;;;5056705;28;20340;-78
2021/05/06 15:09:06;;;;;;;12.45;4.30;;;742.40;1126.40;;;;;;5056500;28;20024;-80
2021/05/06 15:11:33;;;;;;;7.93;3.90;;;742.50;1100.80;;;;;;5056361;28;20074;-79
2021/05/06 15:13:59;;;;;;;9.60;3.03;;;717.70;1075.20;;;;;;5073852;28;20456;-80
2021/05/06 15:16:25;;;;;;;7.53;2.72;;;742.40;1100.80;;;;;;5054127;28;20020;-77
2021/05/06 15:18:51;;;;;;;12.20;4.30;;;742.50;1100.80;;;;;;5054411;28;20112;-77
2021/05/06 15:21:17;;;;;;;8.55;3.10;;;742.40;1100.80;;;;;;5071793;28;20031;-76
2021/05/06 15:23:43;;;;;;;7.38;3.00;;;742.40;1100.80;;;;;;5073358;28;20510;-79